»·PEaware :: N114HT L70-L52

N114HT :: L70-L52

FLIGHT INFORMATION

Flight Status: Arrived
Operator: Privately registered:
United States
More flights under this callsign
Pilot: Heigo T. (17565)
Aircraft: CESSNA 182 SKYLANE
(C182)
More flights by this aircraft type
Origin: L70 Agua Dulce
United States
Destination: L52 Oceano Co
United States
More flights between these airports :: More routes between these airports
Route: + VPLMM 345617N1185539W 345635N1194103W
File this flight plan on PilotEdge
Remarks:
Altitude:
(Current/Filed)
6,500ft
Speed:
(Current/Filed)
130kts
Departed: 05-Jan-18 11:24 AM
Arrived: 05-Jan-18 12:24 PM
Distance/Time
Traveled:
119nm/1:00
Distance/Time
To Go:
Arrived

Flight Plot

Page will automatically refresh every two minutes.

Flight plan parsing failed; only flown route is shown


Map Options




Map Legend


Flown Route
Filed Route
Departure Airport
Arrival Airport
Navaid (VOR, NDB)
Fix

Horizontal Profiles

Position Reports

Time Latitude Longitude Heading Altitude Ground
Speed
05-Jan-18 11:12 34.502775 -118.315428 234 2605ft 0kts
05-Jan-18 11:13 34.502775 -118.315428 234 2605ft 0kts
05-Jan-18 11:14 34.502775 -118.315428 234 2605ft 0kts
05-Jan-18 11:15 34.502775 -118.315428 234 2605ft 0kts
05-Jan-18 11:16 34.502775 -118.315428 234 2605ft 0kts
05-Jan-18 11:17 34.502775 -118.315428 234 2605ft 0kts
05-Jan-18 11:18 34.502775 -118.315428 234 2605ft 0kts
05-Jan-18 11:19 34.502775 -118.315428 234 2605ft 0kts
05-Jan-18 11:20 34.502775 -118.315428 234 2605ft 0kts
05-Jan-18 11:21 34.502775 -118.315428 234 2605ft 0kts
05-Jan-18 11:22 34.502773 -118.315431 234 2605ft 0kts
05-Jan-18 11:23 34.502771 -118.315435 234 2605ft 0kts
05-Jan-18 11:24 34.502675 -118.315327 49 2605ft 6kts
05-Jan-18 11:25 34.503344 -118.314287 53 2605ft 12kts
05-Jan-18 11:26 34.505506 -118.310785 52 2605ft 17kts
05-Jan-18 11:27 34.507748 -118.307134 123 2605ft 0kts
05-Jan-18 11:28 34.507745 -118.307129 123 2605ft 0kts
05-Jan-18 11:29 34.506787 -118.307854 230 2605ft 22kts
05-Jan-18 11:30 34.491774 -118.325591 216 3114ft 98kts
05-Jan-18 11:31 34.465921 -118.345878 214 3732ft 109kts
05-Jan-18 11:32 34.450754 -118.374349 254 4421ft 102kts
05-Jan-18 11:33 34.442595 -118.408473 254 5042ft 108kts
05-Jan-18 11:34 34.434227 -118.443353 254 5645ft 106kts
05-Jan-18 11:35 34.426116 -118.477264 254 6224ft 103kts
05-Jan-18 11:36 34.421129 -118.512058 277 6562ft 118kts
05-Jan-18 11:37 34.429333 -118.551015 318 6547ft 126kts
05-Jan-18 11:38 34.459415 -118.573404 331 6541ft 127kts
05-Jan-18 11:39 34.490698 -118.593905 331 6549ft 128kts
05-Jan-18 11:40 34.522576 -118.614805 331 6552ft 131kts
05-Jan-18 11:41 34.554777 -118.635960 331 6559ft 130kts
05-Jan-18 11:42 34.586389 -118.656707 331 6568ft 128kts
05-Jan-18 11:43 34.615994 -118.680081 322 6581ft 129kts
05-Jan-18 11:44 34.645217 -118.707229 322 6580ft 130kts
05-Jan-18 11:45 34.675561 -118.735538 322 6592ft 139kts
05-Jan-18 11:46 34.708202 -118.760667 328 6593ft 139kts
05-Jan-18 11:47 34.741315 -118.785381 328 6596ft 140kts
05-Jan-18 11:48 34.771568 -118.815788 318 6594ft 140kts
05-Jan-18 11:49 34.801749 -118.845467 313 6588ft 140kts
05-Jan-18 11:50 34.816919 -118.888448 281 6591ft 137kts
05-Jan-18 11:51 34.821337 -118.933988 274 6584ft 135kts
05-Jan-18 11:52 34.820699 -118.979441 268 6582ft 135kts
05-Jan-18 11:53 34.825993 -119.025833 286 6580ft 140kts
05-Jan-18 11:54 34.838569 -119.070791 294 6534ft 140kts
05-Jan-18 11:55 34.850984 -119.113638 281 6879ft 128kts
05-Jan-18 11:56 34.855100 -119.156028 272 7394ft 124kts
05-Jan-18 11:57 34.856969 -119.197882 273 7878ft 123kts
05-Jan-18 11:58 34.858944 -119.239048 273 8372ft 119kts
05-Jan-18 11:59 34.860803 -119.281058 273 8533ft 132kts
05-Jan-18 12:00 34.862742 -119.327191 273 8521ft 138kts
05-Jan-18 12:01 34.864685 -119.374367 273 8521ft 141kts
05-Jan-18 12:02 34.868713 -119.422783 283 8499ft 146kts
05-Jan-18 12:03 34.880803 -119.471276 287 8182ft 153kts
05-Jan-18 12:04 34.893380 -119.521432 287 7680ft 154kts
05-Jan-18 12:05 34.905812 -119.571447 286 7184ft 155kts
05-Jan-18 12:06 34.918350 -119.622226 286 6678ft 156kts
05-Jan-18 12:07 34.930507 -119.671710 286 6484ft 145kts
05-Jan-18 12:08 34.941903 -119.718299 287 6405ft 144kts
05-Jan-18 12:09 34.956909 -119.764895 292 6039ft 148kts
05-Jan-18 12:10 34.972724 -119.811516 296 5648ft 150kts
05-Jan-18 12:11 34.992378 -119.856427 299 5245ft 150kts
05-Jan-18 12:12 35.012475 -119.900931 299 4841ft 148kts
05-Jan-18 12:13 35.033330 -119.944017 300 4486ft 145kts
05-Jan-18 12:14 35.055584 -119.983262 305 4465ft 136kts
05-Jan-18 12:15 35.073512 -120.013408 305 4475ft 132kts
05-Jan-18 12:16 35.095194 -120.049737 305 4481ft 133kts
05-Jan-18 12:17 35.117565 -120.086682 306 4481ft 137kts
05-Jan-18 12:18 35.136548 -120.127134 294 4476ft 135kts
05-Jan-18 12:19 35.144673 -120.170243 274 4483ft 130kts
05-Jan-18 12:20 35.143877 -120.214371 268 4480ft 130kts
05-Jan-18 12:21 35.142037 -120.259101 267 4479ft 131kts
05-Jan-18 12:22 35.139854 -120.305846 267 4202ft 146kts
05-Jan-18 12:23 35.135388 -120.355850 250 3802ft 150kts
05-Jan-18 12:24 35.121854 -120.404334 252 3397ft 150kts
05-Jan-18 12:25 35.108863 -120.450811 252 2960ft 142kts
05-Jan-18 12:26 35.096673 -120.496976 253 2508ft 143kts
05-Jan-18 12:27 35.083466 -120.538462 246 1776ft 120kts
05-Jan-18 12:28 35.080777 -120.577176 284 1133ft 110kts
05-Jan-18 12:29 35.093676 -120.607927 303 450ft 90kts
05-Jan-18 12:30 35.102944 -120.624988 303 17ft 2kts
05-Jan-18 12:31 35.103339 -120.624282 177 17ft 4kts
05-Jan-18 12:32 35.103282 -120.624294 209 17ft 0kts
05-Jan-18 12:33 35.103282 -120.624294 209 17ft 0kts
05-Jan-18 12:34 35.103282 -120.624294 209 17ft 0kts
05-Jan-18 12:35 35.103282 -120.624294 209 17ft 0kts
05-Jan-18 12:36 35.103282 -120.624294 209 17ft 0kts
05-Jan-18 12:37 35.103282 -120.624294 209 17ft 0kts
05-Jan-18 12:38 35.103282 -120.624294 209 17ft 0kts
05-Jan-18 12:39 35.103282 -120.624294 209 17ft 0kts
05-Jan-18 12:40 35.103282 -120.624294 209 17ft 0kts
05-Jan-18 12:41 35.103282 -120.624294 209 17ft 0kts
05-Jan-18 12:42 35.103282 -120.624294 209 17ft 0kts
05-Jan-18 12:43 35.103282 -120.624294 209 17ft 0kts
05-Jan-18 12:44 35.103282 -120.624294 209 17ft 0kts

Navigation Log

Ident Type
Flight plan parsing failed, navigation log unavailable